Time;durP1;ratioP1;P1;durP2;ratioP2;P2;SDS_P1;SDS_P2;PMS_P1;PMS_P2;Temp;Humidity;BMP_temperature;BMP_pressure;BME280_temperature;BME280_humidity;BME280_pressure;Samples;Min_cycle;Max_cycle;Signal;HPM_P1;HPM_P2
2022/08/24 00:09:46;;;;;;;40.65;21.27;;;;;;;19.26;85.27;100418.50;30860530;28;96742;-58
2022/08/24 00:24:46;;;;;;;47.30;23.17;;;;;;;19.20;85.35;100423.97;30873962;28;96752;-58
2022/08/24 00:39:47;;;;;;;43.65;22.30;;;;;;;19.19;85.51;100406.09;30871541;28;102494;-58
2022/08/24 00:54:53;;;;;;;48.72;24.20;;;;;;;19.18;85.75;100394.50;30870296;28;97406;-58
2022/08/24 01:09:56;;;;;;;50.80;23.87;;;;;;;19.18;85.70;100389.09;30869928;28;96728;-58
2022/08/24 01:24:58;;;;;;;49.33;24.23;;;;;;;19.20;85.71;100384.28;30867869;28;97371;-58
2022/08/24 01:40:00;;;;;;;47.63;23.43;;;;;;;19.18;86.07;100378.28;30865893;28;97612;-57
2022/08/24 01:55:00;;;;;;;43.97;23.43;;;;;;;19.19;86.29;100382.66;30864258;28;97032;-58
2022/08/24 02:10:01;;;;;;;45.35;23.38;;;;;;;19.20;86.16;100397.78;30862971;28;96763;-57
2022/08/24 02:25:01;;;;;;;49.50;24.27;;;;;;;19.24;86.38;100428.69;30861934;28;96729;-57
2022/08/24 02:40:04;;;;;;;51.85;25.33;;;;;;;19.28;86.46;100438.00;30858119;28;96822;-58
2022/08/24 02:55:06;;;;;;;49.77;23.40;;;;;;;19.31;86.32;100422.41;30858051;28;96772;-58
2022/08/24 03:10:07;;;;;;;44.73;23.93;;;;;;;19.30;86.51;100418.91;30856980;28;97105;-57
2022/08/24 03:25:09;;;;;;;46.73;23.30;;;;;;;19.33;86.37;100447.31;30855508;28;97422;-58
2022/08/24 03:40:11;;;;;;;34.77;21.87;;;;;;;19.30;86.58;100458.56;30854244;28;96816;-58
2022/08/24 03:55:12;;;;;;;37.30;21.27;;;;;;;19.30;86.67;100472.91;30851461;28;97494;-58
2022/08/24 04:10:13;;;;;;;36.95;21.45;;;;;;;19.36;86.53;100487.41;30851495;28;97480;-57
2022/08/24 04:25:14;;;;;;;35.20;20.37;;;;;;;19.41;86.51;100491.09;30849650;28;96772;-58
2022/08/24 04:40:15;;;;;;;32.83;21.70;;;;;;;19.53;86.51;100483.09;30848606;28;97366;-57
2022/08/24 04:55:15;;;;;;;31.65;18.63;;;;;;;19.64;86.40;100494.22;30851079;28;97444;-58
2022/08/24 05:10:15;;;;;;;33.45;21.00;;;;;;;19.72;86.43;100502.03;30865271;28;96726;-58
2022/08/24 05:25:16;;;;;;;33.13;18.52;;;;;;;20.02;86.28;100491.34;30863641;28;96758;-58
2022/08/24 05:40:18;;;;;;;25.20;16.80;;;;;;;20.24;85.89;100491.72;30863650;28;96931;-58
2022/08/24 05:55:18;;;;;;;27.17;17.00;;;;;;;20.39;85.59;100487.78;30861665;28;96774;-58
2022/08/24 06:10:19;;;;;;;22.20;16.47;;;;;;;20.48;85.33;100493.72;30857109;28;96784;-58
2022/08/24 06:40:52;;;;;;;23.80;16.60;;;;;;;20.74;84.40;100515.03;30853198;28;97279;-58
2022/08/24 06:55:57;;;;;;;23.35;15.43;;;;;;;20.94;84.73;100513.91;30852236;28;96902;-58
2022/08/24 07:10:58;;;;;;;18.17;13.97;;;;;;;21.24;84.01;100513.88;30853670;28;96782;-58
2022/08/24 07:26:10;;;;;;;24.47;14.83;;;;;;;21.94;83.36;100495.97;30851639;28;96773;-58
2022/08/24 07:41:13;;;;;;;18.23;12.70;;;;;;;22.71;81.84;100512.19;30852095;28;96836;-59
2022/08/24 07:56:13;;;;;;;16.77;11.50;;;;;;;22.73;80.54;100537.19;30850421;28;96834;-58
2022/08/24 08:11:13;;;;;;;;;;;;;;;22.73;79.74;100542.63;30849943;28;97448;-58
2022/08/24 08:26:18;;;;;;;19.53;14.30;;;;;;;22.88;79.50;100553.78;30847708;28;97455;-58
2022/08/24 08:41:37;;;;;;;21.97;13.57;;;;;;;22.97;79.07;100555.03;30866781;28;96845;-58
2022/08/24 08:56:53;;;;;;;17.40;12.83;;;;;;;23.05;78.42;100577.44;30867270;28;96782;-58
2022/08/24 09:12:04;;;;;;;19.47;13.10;;;;;;;22.96;77.41;100588.72;30865949;28;96700;-58
2022/08/24 09:27:26;;;;;;;17.43;13.07;;;;;;;22.69;77.19;100593.88;30865894;28;96668;-59
2022/08/24 09:43:05;;;;;;;18.37;12.63;;;;;;;22.71;77.65;100596.38;30861331;28;97116;-59
2022/08/24 09:58:24;;;;;;;20.33;14.73;;;;;;;22.40;77.47;100610.09;30858200;28;97632;-58
2022/08/24 10:14:10;;;;;;;21.60;14.73;;;;;;;22.25;77.57;100610.59;30857746;28;97178;-58
2022/08/24 10:29:35;;;;;;;24.03;15.33;;;;;;;22.32;77.59;100615.88;30854748;28;96743;-58
2022/08/24 10:44:53;;;;;;;19.20;14.10;;;;;;;22.52;77.54;100615.53;30855728;28;96837;-58
2022/08/24 11:00:16;;;;;;;18.70;12.90;;;;;;;23.17;76.58;100605.41;30854731;28;97052;-58
2022/08/24 11:15:16;;;;;;;13.23;11.30;;;;;;;23.58;75.06;100606.13;30853251;28;97048;-58
2022/08/24 11:30:16;;;;;;;17.83;12.40;;;;;;;23.92;73.88;100625.19;30854106;28;97683;-58
2022/08/24 11:45:50;;;;;;;17.73;13.37;;;;;;;24.61;72.44;100623.97;30852012;28;97388;-58
2022/08/24 12:01:05;;;;;;;15.73;11.13;;;;;;;26.69;69.32;100623.50;30829991;28;96930;-59
2022/08/24 12:16:15;;;;;;;15.03;9.57;;;;;;;27.82;65.03;100619.34;30871318;28;97071;-58
2022/08/24 12:31:39;;;;;;;14.20;8.83;;;;;;;28.17;62.25;100623.13;30868800;28;96859;-59
2022/08/24 12:46:43;;;;;;;11.13;9.60;;;;;;;27.65;61.14;100614.97;30866528;28;96940;-58
2022/08/24 13:01:55;;;;;;;12.40;9.83;;;;;;;27.19;60.69;100610.25;30866609;28;97150;-58
2022/08/24 13:16:55;;;;;;;13.53;10.77;;;;;;;27.95;59.04;100602.31;30863216;28;96834;-59
2022/08/24 13:31:58;;;;;;;15.43;9.02;;;;;;;30.08;55.04;100619.22;30861825;28;96700;-58
2022/08/24 13:47:07;;;;;;;11.83;7.90;;;;;;;30.85;51.97;100618.28;30861355;28;96783;-58
2022/08/24 14:02:14;;;;;;;11.73;7.70;;;;;;;31.16;49.70;100604.13;30861771;28;97448;-58
2022/08/24 14:32:59;;;;;;;14.13;7.70;;;;;;;30.21;49.05;100591.06;30860576;28;97398;-59
2022/08/24 14:48:12;;;;;;;12.00;7.90;;;;;;;29.79;49.90;100570.63;30857690;28;96748;-60
2022/08/24 15:03:26;;;;;;;15.50;7.83;;;;;;;29.16;50.75;100556.59;30854684;28;97320;-59
2022/08/24 15:19:07;;;;;;;15.03;8.90;;;;;;;28.39;52.10;100543.34;30852899;28;96700;-59
2022/08/24 15:34:08;;;;;;;15.23;8.63;;;;;;;27.94;53.61;100547.84;30851776;28;96773;-59
2022/08/24 15:49:20;;;;;;;14.65;9.00;;;;;;;27.29;54.55;100543.00;30849904;28;96816;-59
2022/08/24 16:04:45;;;;;;;17.17;9.87;;;;;;;26.91;56.08;100551.44;30849232;28;96975;-59
2022/08/24 16:19:51;;;;;;;12.70;8.90;;;;;;;26.46;57.06;100558.38;30849477;28;96863;-59
2022/08/24 16:35:05;;;;;;;15.03;9.37;;;;;;;26.07;58.15;100556.06;30847760;28;96827;-59
2022/08/24 16:50:06;;;;;;;13.87;9.17;;;;;;;25.53;59.43;100557.84;30848208;28;96834;-59
2022/08/24 17:05:07;;;;;;;17.25;9.75;;;;;;;25.04;60.59;100571.56;30864513;28;97255;-59
2022/08/24 17:20:10;;;;;;;19.65;8.52;;;;;;;24.50;62.02;100584.84;30864138;28;99093;-58
2022/08/24 17:35:11;;;;;;;16.30;10.73;;;;;;;24.01;63.43;100586.66;30864737;28;96786;-59
2022/08/24 17:50:13;;;;;;;19.60;11.23;;;;;;;23.56;65.01;100597.38;30861248;28;97666;-58
2022/08/24 18:05:13;;;;;;;20.03;12.10;;;;;;;23.17;66.49;100589.13;30859613;28;96777;-59
2022/08/24 18:20:17;;;;;;;17.75;11.10;;;;;;;22.81;67.64;100600.09;30858944;28;97047;-58
2022/08/24 18:35:18;;;;;;;19.97;11.97;;;;;;;22.53;69.15;100600.88;30858858;28;97326;-59
2022/08/24 18:50:18;;;;;;;17.47;12.40;;;;;;;22.46;70.06;100617.31;30856854;28;96911;-59
2022/08/24 19:05:21;;;;;;;;;;;;;;;22.35;70.91;100610.03;30858242;28;96774;-58
2022/08/24 19:20:21;;;;;;;27.10;13.43;;;;;;;22.15;71.48;100602.22;30856413;28;96820;-59
2022/08/24 19:35:22;;;;;;;18.98;12.70;;;;;;;22.10;72.15;100594.78;30853478;28;96710;-59
2022/08/24 19:50:22;;;;;;;22.40;14.55;;;;;;;22.15;72.63;100583.22;30852223;28;97351;-58
2022/08/24 20:05:25;;;;;;;24.00;13.98;;;;;;;21.98;72.72;100600.22;30851051;28;96756;-58
2022/08/24 20:20:27;;;;;;;20.97;14.50;;;;;;;21.89;73.57;100623.31;30851098;28;97329;-59
2022/08/24 20:35:27;;;;;;;19.70;14.87;;;;;;;21.75;74.24;100630.06;30869079;28;96654;-59
2022/08/24 20:50:29;;;;;;;20.00;15.15;;;;;;;21.60;74.55;100620.47;30868442;28;96825;-58
2022/08/24 21:05:30;;;;;;;21.07;15.43;;;;;;;21.40;75.03;100614.50;30869099;28;96741;-58
2022/08/24 21:20:31;;;;;;;23.23;16.00;;;;;;;21.19;75.58;100586.06;30867712;28;97093;-58
2022/08/24 21:35:33;;;;;;;21.50;16.97;;;;;;;20.97;76.00;100578.44;30866228;28;97331;-58
2022/08/24 21:50:33;;;;;;;28.77;16.73;;;;;;;20.77;76.87;100567.88;30864442;28;96794;-58
2022/08/24 22:05:34;;;;;;;18.83;16.23;;;;;;;20.60;77.46;100560.38;30864136;28;100018;-58
2022/08/24 22:20:35;;;;;;;30.13;17.42;;;;;;;20.45;77.96;100549.13;30863027;28;96720;-58
2022/08/24 22:35:40;;;;;;;25.47;17.13;;;;;;;20.33;78.36;100553.63;30861136;28;101434;-58
2022/08/24 22:50:42;;;;;;;27.23;18.33;;;;;;;20.23;79.08;100541.47;30859101;28;97015;-58
2022/08/24 23:05:43;;;;;;;29.47;19.53;;;;;;;20.20;79.37;100541.91;30858827;28;97517;-58
2022/08/24 23:20:43;;;;;;;23.17;17.48;;;;;;;20.11;79.84;100510.81;30857673;28;96731;-58
2022/08/24 23:35:43;;;;;;;26.00;17.63;;;;;;;20.00;80.25;100516.94;30856863;28;96850;-58
2022/08/24 23:50:45;;;;;;;28.30;20.13;;;;;;;20.02;80.61;100514.84;30854097;28;115781;-58
